sensor_id;sensor_type;location;lat;lon;timestamp;pressure;altitude;pressure_sealevel;temperature;humidity
77235;BME280;66253;50.526;14.974;2023-06-22T00:01:33;99306.07;;;21.68;70.13
77235;BME280;66253;50.526;14.974;2023-06-22T00:04:02;99304.95;;;21.55;70.09
77235;BME280;66253;50.526;14.974;2023-06-22T00:06:30;99310.16;;;21.50;70.05
77235;BME280;66253;50.526;14.974;2023-06-22T00:08:59;99316.45;;;21.45;70.12
77235;BME280;66253;50.526;14.974;2023-06-22T00:11:27;99319.77;;;21.45;70.26
77235;BME280;66253;50.526;14.974;2023-06-22T00:13:55;99324.52;;;21.46;70.48
77235;BME280;66253;50.526;14.974;2023-06-22T00:16:24;99329.54;;;21.48;70.32
77235;BME280;66253;50.526;14.974;2023-06-22T00:18:52;99331.20;;;21.47;70.26
77235;BME280;66253;50.526;14.974;2023-06-22T00:21:21;99331.90;;;21.45;70.26
77235;BME280;66253;50.526;14.974;2023-06-22T00:23:49;99334.70;;;21.45;70.52
77235;BME280;66253;50.526;14.974;2023-06-22T00:26:17;99337.30;;;21.45;70.25
77235;BME280;66253;50.526;14.974;2023-06-22T00:28:46;99337.14;;;21.43;70.28
77235;BME280;66253;50.526;14.974;2023-06-22T00:31:14;99339.27;;;21.42;70.38
77235;BME280;66253;50.526;14.974;2023-06-22T00:33:43;99339.13;;;21.42;70.14
77235;BME280;66253;50.526;14.974;2023-06-22T00:36:11;99342.45;;;21.40;70.17
77235;BME280;66253;50.526;14.974;2023-06-22T00:38:39;99341.95;;;21.36;70.11
77235;BME280;66253;50.526;14.974;2023-06-22T00:41:08;99348.34;;;21.34;70.17
77235;BME280;66253;50.526;14.974;2023-06-22T00:43:36;99351.80;;;21.33;70.47
77235;BME280;66253;50.526;14.974;2023-06-22T00:46:05;99349.97;;;21.32;70.56
77235;BME280;66253;50.526;14.974;2023-06-22T00:48:33;99350.30;;;21.30;70.30
77235;BME280;66253;50.526;14.974;2023-06-22T00:51:02;99348.87;;;21.24;70.10
77235;BME280;66253;50.526;14.974;2023-06-22T00:53:30;99351.96;;;21.17;70.00
77235;BME280;66253;50.526;14.974;2023-06-22T00:55:59;99348.84;;;21.16;70.24
77235;BME280;66253;50.526;14.974;2023-06-22T00:58:27;99348.67;;;21.10;69.93
77235;BME280;66253;50.526;14.974;2023-06-22T01:00:56;99350.51;;;21.04;69.94
77235;BME280;66253;50.526;14.974;2023-06-22T01:03:24;99350.70;;;20.98;69.89
77235;BME280;66253;50.526;14.974;2023-06-22T01:05:56;99349.23;;;20.94;70.04
77235;BME280;66253;50.526;14.974;2023-06-22T01:08:31;99346.92;;;20.93;69.94
77235;BME280;66253;50.526;14.974;2023-06-22T01:11:07;99347.13;;;20.86;69.85
77235;BME280;66253;50.526;14.974;2023-06-22T01:13:41;99349.02;;;20.83;69.95
77235;BME280;66253;50.526;14.974;2023-06-22T01:16:17;99346.36;;;20.82;70.10
77235;BME280;66253;50.526;14.974;2023-06-22T01:18:49;99341.19;;;20.74;69.94
77235;BME280;66253;50.526;14.974;2023-06-22T01:21:20;99332.81;;;20.53;69.81
77235;BME280;66253;50.526;14.974;2023-06-22T01:23:59;99336.33;;;20.39;70.32
77235;BME280;66253;50.526;14.974;2023-06-22T01:26:37;99334.18;;;20.36;70.43
77235;BME280;66253;50.526;14.974;2023-06-22T01:29:07;99334.75;;;20.38;70.68
77235;BME280;66253;50.526;14.974;2023-06-22T01:31:36;99336.40;;;20.37;70.74
77235;BME280;66253;50.526;14.974;2023-06-22T01:34:07;99332.58;;;20.37;70.71
77235;BME280;66253;50.526;14.974;2023-06-22T01:36:37;99333.56;;;20.34;70.59
77235;BME280;66253;50.526;14.974;2023-06-22T01:39:06;99328.26;;;20.24;70.42
77235;BME280;66253;50.526;14.974;2023-06-22T01:41:37;99332.76;;;20.15;70.54
77235;BME280;66253;50.526;14.974;2023-06-22T01:44:06;99334.32;;;20.07;70.69
77235;BME280;66253;50.526;14.974;2023-06-22T01:46:36;99338.80;;;20.04;70.99
77235;BME280;66253;50.526;14.974;2023-06-22T01:49:05;99342.77;;;20.02;71.02
77235;BME280;66253;50.526;14.974;2023-06-22T01:51:34;99343.92;;;20.03;71.07
77235;BME280;66253;50.526;14.974;2023-06-22T01:54:05;99344.98;;;20.05;71.44
77235;BME280;66253;50.526;14.974;2023-06-22T01:56:34;99340.44;;;20.03;71.71
77235;BME280;66253;50.526;14.974;2023-06-22T01:59:08;99336.45;;;20.00;71.99
77235;BME280;66253;50.526;14.974;2023-06-22T02:01:43;99338.78;;;19.95;72.46
77235;BME280;66253;50.526;14.974;2023-06-22T02:04:17;99341.25;;;19.92;72.74
77235;BME280;66253;50.526;14.974;2023-06-22T02:06:49;99343.31;;;19.91;73.03
77235;BME280;66253;50.526;14.974;2023-06-22T02:09:21;99341.45;;;19.90;73.26
77235;BME280;66253;50.526;14.974;2023-06-22T02:11:52;99342.94;;;19.93;73.43
77235;BME280;66253;50.526;14.974;2023-06-22T02:14:24;99341.38;;;19.95;73.53
77235;BME280;66253;50.526;14.974;2023-06-22T02:16:53;99339.61;;;19.93;73.67
77235;BME280;66253;50.526;14.974;2023-06-22T02:19:26;99342.83;;;19.87;74.26
77235;BME280;66253;50.526;14.974;2023-06-22T02:21:55;99348.11;;;19.78;74.24
77235;BME280;66253;50.526;14.974;2023-06-22T02:24:23;99358.39;;;19.78;74.48
77235;BME280;66253;50.526;14.974;2023-06-22T02:26:52;99354.16;;;19.79;74.27
77235;BME280;66253;50.526;14.974;2023-06-22T02:29:20;99350.58;;;19.82;74.50
77235;BME280;66253;50.526;14.974;2023-06-22T02:31:48;99344.76;;;19.85;74.50
77235;BME280;66253;50.526;14.974;2023-06-22T02:34:18;99344.66;;;19.89;74.62
77235;BME280;66253;50.526;14.974;2023-06-22T02:36:47;99346.45;;;19.92;74.30
77235;BME280;66253;50.526;14.974;2023-06-22T02:39:14;99347.61;;;19.97;73.88
77235;BME280;66253;50.526;14.974;2023-06-22T02:41:42;99348.58;;;20.02;73.60
77235;BME280;66253;50.526;14.974;2023-06-22T02:44:11;99348.62;;;20.01;73.58
77235;BME280;66253;50.526;14.974;2023-06-22T02:46:39;99348.13;;;19.99;73.57
77235;BME280;66253;50.526;14.974;2023-06-22T02:49:08;99350.91;;;19.95;73.67
77235;BME280;66253;50.526;14.974;2023-06-22T02:51:38;99354.58;;;19.95;73.57
77235;BME280;66253;50.526;14.974;2023-06-22T02:54:06;99351.23;;;19.97;73.52
77235;BME280;66253;50.526;14.974;2023-06-22T02:56:35;99352.79;;;19.97;73.59
77235;BME280;66253;50.526;14.974;2023-06-22T02:59:03;99351.91;;;19.95;73.29
77235;BME280;66253;50.526;14.974;2023-06-22T03:01:32;99351.27;;;19.91;73.24
77235;BME280;66253;50.526;14.974;2023-06-22T03:04:00;99347.45;;;19.89;73.11
77235;BME280;66253;50.526;14.974;2023-06-22T03:06:28;99343.42;;;19.89;73.11
77235;BME280;66253;50.526;14.974;2023-06-22T03:08:59;99345.75;;;19.91;73.24
77235;BME280;66253;50.526;14.974;2023-06-22T03:11:27;99341.95;;;19.91;73.09
77235;BME280;66253;50.526;14.974;2023-06-22T03:13:56;99342.25;;;19.91;73.10
77235;BME280;66253;50.526;14.974;2023-06-22T03:16:25;99341.39;;;19.89;73.08
77235;BME280;66253;50.526;14.974;2023-06-22T03:18:54;99344.73;;;19.87;73.01
77235;BME280;66253;50.526;14.974;2023-06-22T03:21:23;99344.98;;;19.84;73.01
77235;BME280;66253;50.526;14.974;2023-06-22T03:23:51;99345.70;;;19.80;72.94
77235;BME280;66253;50.526;14.974;2023-06-22T03:26:20;99343.14;;;19.76;72.99
77235;BME280;66253;50.526;14.974;2023-06-22T03:28:48;99343.48;;;19.72;72.89
77235;BME280;66253;50.526;14.974;2023-06-22T03:31:17;99347.89;;;19.64;72.84
77235;BME280;66253;50.526;14.974;2023-06-22T03:33:45;99344.34;;;19.59;72.97
77235;BME280;66253;50.526;14.974;2023-06-22T03:36:14;99343.97;;;19.57;73.09
77235;BME280;66253;50.526;14.974;2023-06-22T03:38:42;99343.02;;;19.58;73.18
77235;BME280;66253;50.526;14.974;2023-06-22T03:41:11;99340.63;;;19.54;73.26
77235;BME280;66253;50.526;14.974;2023-06-22T03:43:39;99342.71;;;19.54;73.48
77235;BME280;66253;50.526;14.974;2023-06-22T03:46:08;99344.74;;;19.56;73.39
77235;BME280;66253;50.526;14.974;2023-06-22T03:48:37;99346.36;;;19.61;73.22
77235;BME280;66253;50.526;14.974;2023-06-22T03:51:06;99355.73;;;19.67;73.27
77235;BME280;66253;50.526;14.974;2023-06-22T03:53:34;99359.33;;;19.74;73.18
77235;BME280;66253;50.526;14.974;2023-06-22T03:56:03;99357.61;;;19.79;73.08
77235;BME280;66253;50.526;14.974;2023-06-22T03:58:32;99355.92;;;19.84;73.10
77235;BME280;66253;50.526;14.974;2023-06-22T04:01:00;99355.94;;;19.89;72.91
77235;BME280;66253;50.526;14.974;2023-06-22T04:03:28;99355.55;;;19.95;72.85
77235;BME280;66253;50.526;14.974;2023-06-22T04:05:57;99351.73;;;20.01;72.79
77235;BME280;66253;50.526;14.974;2023-06-22T04:08:26;99351.96;;;20.06;72.66
77235;BME280;66253;50.526;14.974;2023-06-22T04:10:54;99348.92;;;20.13;72.50
77235;BME280;66253;50.526;14.974;2023-06-22T04:13:22;99349.63;;;20.22;72.30
77235;BME280;66253;50.526;14.974;2023-06-22T04:15:51;99347.88;;;20.28;72.37
77235;BME280;66253;50.526;14.974;2023-06-22T04:18:19;99350.17;;;20.36;72.36
77235;BME280;66253;50.526;14.974;2023-06-22T04:20:48;99350.53;;;20.49;72.26
77235;BME280;66253;50.526;14.974;2023-06-22T04:23:16;99351.96;;;20.59;72.21
77235;BME280;66253;50.526;14.974;2023-06-22T04:25:45;99351.45;;;20.71;72.22
77235;BME280;66253;50.526;14.974;2023-06-22T04:28:13;99347.83;;;20.81;72.11
77235;BME280;66253;50.526;14.974;2023-06-22T04:30:42;99349.60;;;20.94;72.03
77235;BME280;66253;50.526;14.974;2023-06-22T04:33:10;99349.81;;;21.02;71.92
77235;BME280;66253;50.526;14.974;2023-06-22T04:35:38;99346.88;;;21.10;71.84
77235;BME280;66253;50.526;14.974;2023-06-22T04:38:07;99349.55;;;21.19;71.77
77235;BME280;66253;50.526;14.974;2023-06-22T04:40:35;99351.88;;;21.28;71.74
77235;BME280;66253;50.526;14.974;2023-06-22T04:43:04;99357.42;;;21.38;71.49
77235;BME280;66253;50.526;14.974;2023-06-22T04:45:32;99363.56;;;21.50;71.38
77235;BME280;66253;50.526;14.974;2023-06-22T04:48:01;99363.85;;;21.61;71.24
77235;BME280;66253;50.526;14.974;2023-06-22T04:50:29;99362.86;;;21.70;70.97
77235;BME280;66253;50.526;14.974;2023-06-22T04:52:57;99358.88;;;21.81;70.88
77235;BME280;66253;50.526;14.974;2023-06-22T04:55:26;99355.29;;;21.91;70.77
77235;BME280;66253;50.526;14.974;2023-06-22T04:57:54;99354.38;;;21.98;70.67
77235;BME280;66253;50.526;14.974;2023-06-22T05:00:23;99353.87;;;22.08;70.57
77235;BME280;66253;50.526;14.974;2023-06-22T05:02:52;99351.95;;;22.17;70.51
77235;BME280;66253;50.526;14.974;2023-06-22T05:05:20;99346.78;;;22.28;69.95
77235;BME280;66253;50.526;14.974;2023-06-22T05:07:49;99342.21;;;22.39;70.07
77235;BME280;66253;50.526;14.974;2023-06-22T05:10:18;99342.55;;;22.44;69.92
77235;BME280;66253;50.526;14.974;2023-06-22T05:12:47;99342.94;;;22.52;69.90
77235;BME280;66253;50.526;14.974;2023-06-22T05:15:15;99348.21;;;22.60;69.64
77235;BME280;66253;50.526;14.974;2023-06-22T05:17:44;99352.69;;;22.65;69.02
77235;BME280;66253;50.526;14.974;2023-06-22T05:20:13;99347.25;;;22.71;68.84
77235;BME280;66253;50.526;14.974;2023-06-22T05:22:42;99353.27;;;22.77;68.49
77235;BME280;66253;50.526;14.974;2023-06-22T05:25:11;99354.20;;;22.81;68.30
77235;BME280;66253;50.526;14.974;2023-06-22T05:27:40;99359.61;;;22.86;68.24
77235;BME280;66253;50.526;14.974;2023-06-22T05:30:10;99364.13;;;22.89;67.95
77235;BME280;66253;50.526;14.974;2023-06-22T05:32:38;99368.02;;;22.97;67.96
77235;BME280;66253;50.526;14.974;2023-06-22T05:35:08;99372.48;;;23.06;68.05
77235;BME280;66253;50.526;14.974;2023-06-22T05:37:36;99372.77;;;23.16;68.13
77235;BME280;66253;50.526;14.974;2023-06-22T05:40:07;99378.83;;;23.24;67.70
77235;BME280;66253;50.526;14.974;2023-06-22T05:42:35;99381.08;;;23.30;67.79
77235;BME280;66253;50.526;14.974;2023-06-22T05:45:05;99391.44;;;23.33;67.29
77235;BME280;66253;50.526;14.974;2023-06-22T05:47:34;99398.42;;;23.33;67.22
77235;BME280;66253;50.526;14.974;2023-06-22T05:50:02;99403.88;;;23.42;67.28
77235;BME280;66253;50.526;14.974;2023-06-22T05:52:33;99399.77;;;23.56;66.99
77235;BME280;66253;50.526;14.974;2023-06-22T05:55:03;99401.02;;;23.72;66.46
77235;BME280;66253;50.526;14.974;2023-06-22T05:57:32;99407.50;;;23.89;66.66
77235;BME280;66253;50.526;14.974;2023-06-22T06:00:01;99415.02;;;24.04;65.98
77235;BME280;66253;50.526;14.974;2023-06-22T06:02:31;99424.54;;;24.19;65.64
77235;BME280;66253;50.526;14.974;2023-06-22T06:04:59;99429.30;;;24.36;65.24
77235;BME280;66253;50.526;14.974;2023-06-22T06:07:28;99430.51;;;24.54;64.69
77235;BME280;66253;50.526;14.974;2023-06-22T06:09:56;99437.88;;;24.72;64.11
77235;BME280;66253;50.526;14.974;2023-06-22T06:12:25;99440.41;;;24.88;64.02
77235;BME280;66253;50.526;14.974;2023-06-22T06:14:53;99437.40;;;25.04;63.53
77235;BME280;66253;50.526;14.974;2023-06-22T06:17:22;99430.48;;;25.13;63.21
77235;BME280;66253;50.526;14.974;2023-06-22T06:19:50;99428.92;;;25.22;63.16
77235;BME280;66253;50.526;14.974;2023-06-22T06:22:18;99420.20;;;25.31;62.68
77235;BME280;66253;50.526;14.974;2023-06-22T06:24:53;99409.99;;;25.41;62.15
77235;BME280;66253;50.526;14.974;2023-06-22T06:27:22;99399.96;;;25.49;61.64
77235;BME280;66253;50.526;14.974;2023-06-22T06:29:50;99397.27;;;25.52;60.87
77235;BME280;66253;50.526;14.974;2023-06-22T06:32:18;99398.71;;;25.57;61.28
77235;BME280;66253;50.526;14.974;2023-06-22T06:34:47;99396.52;;;25.68;61.18
77235;BME280;66253;50.526;14.974;2023-06-22T06:37:16;99401.31;;;25.79;61.04
77235;BME280;66253;50.526;14.974;2023-06-22T06:39:44;99411.38;;;25.94;60.68
77235;BME280;66253;50.526;14.974;2023-06-22T06:42:13;99407.66;;;26.06;60.21
77235;BME280;66253;50.526;14.974;2023-06-22T06:44:42;99399.52;;;26.13;60.38
77235;BME280;66253;50.526;14.974;2023-06-22T06:47:10;99400.63;;;26.21;60.14
77235;BME280;66253;50.526;14.974;2023-06-22T06:49:38;99403.77;;;26.29;60.24
77235;BME280;66253;50.526;14.974;2023-06-22T06:52:08;99399.96;;;26.39;60.16
77235;BME280;66253;50.526;14.974;2023-06-22T06:54:47;99395.00;;;26.51;59.85
77235;BME280;66253;50.526;14.974;2023-06-22T06:57:16;99398.26;;;26.63;59.44
77235;BME280;66253;50.526;14.974;2023-06-22T06:59:44;99404.42;;;26.76;59.02
77235;BME280;66253;50.526;14.974;2023-06-22T07:02:12;99399.98;;;26.88;58.83
77235;BME280;66253;50.526;14.974;2023-06-22T07:04:41;99395.29;;;27.01;58.17
77235;BME280;66253;50.526;14.974;2023-06-22T07:07:10;99382.55;;;27.06;58.12
77235;BME280;66253;50.526;14.974;2023-06-22T07:09:38;99376.77;;;27.12;57.93
77235;BME280;66253;50.526;14.974;2023-06-22T07:12:08;99379.51;;;27.18;57.31
77235;BME280;66253;50.526;14.974;2023-06-22T07:14:37;99383.20;;;27.24;57.27
77235;BME280;66253;50.526;14.974;2023-06-22T07:17:05;99373.54;;;27.35;57.25
77235;BME280;66253;50.526;14.974;2023-06-22T07:19:34;99364.01;;;27.44;57.07
77235;BME280;66253;50.526;14.974;2023-06-22T07:22:02;99370.44;;;27.49;56.67
77235;BME280;66253;50.526;14.974;2023-06-22T07:24:31;99370.52;;;27.59;57.20
77235;BME280;66253;50.526;14.974;2023-06-22T07:26:59;99365.53;;;27.66;55.87
77235;BME280;66253;50.526;14.974;2023-06-22T07:29:28;99366.44;;;27.61;55.69
77235;BME280;66253;50.526;14.974;2023-06-22T07:31:57;99367.35;;;27.64;55.71
77235;BME280;66253;50.526;14.974;2023-06-22T07:34:25;99357.67;;;27.71;55.87
77235;BME280;66253;50.526;14.974;2023-06-22T07:36:54;99351.61;;;27.77;55.96
77235;BME280;66253;50.526;14.974;2023-06-22T07:39:30;99350.25;;;27.84;55.58
77235;BME280;66253;50.526;14.974;2023-06-22T07:41:58;99347.65;;;27.84;54.79
77235;BME280;66253;50.526;14.974;2023-06-22T07:44:27;99344.31;;;27.88;55.61
77235;BME280;66253;50.526;14.974;2023-06-22T07:46:55;99344.09;;;27.93;54.55
77235;BME280;66253;50.526;14.974;2023-06-22T07:49:24;99338.63;;;28.00;55.34
77235;BME280;66253;50.526;14.974;2023-06-22T07:51:52;99331.23;;;28.16;55.30
77235;BME280;66253;50.526;14.974;2023-06-22T07:54:21;99327.63;;;28.32;55.12
77235;BME280;66253;50.526;14.974;2023-06-22T07:56:56;99322.58;;;28.43;54.29
77235;BME280;66253;50.526;14.974;2023-06-22T07:59:24;99320.45;;;28.49;54.02
77235;BME280;66253;50.526;14.974;2023-06-22T08:01:53;99323.76;;;28.54;53.58
77235;BME280;66253;50.526;14.974;2023-06-22T08:04:21;99314.34;;;28.53;53.19
77235;BME280;66253;50.526;14.974;2023-06-22T08:06:50;99300.80;;;28.52;52.96
77235;BME280;66253;50.526;14.974;2023-06-22T08:09:18;99302.63;;;28.53;53.21
77235;BME280;66253;50.526;14.974;2023-06-22T08:11:47;99301.69;;;28.53;53.01
77235;BME280;66253;50.526;14.974;2023-06-22T08:14:15;99302.77;;;28.53;52.96
77235;BME280;66253;50.526;14.974;2023-06-22T08:16:44;99306.59;;;28.49;52.62
77235;BME280;66253;50.526;14.974;2023-06-22T08:19:12;99306.16;;;28.43;52.26
77235;BME280;66253;50.526;14.974;2023-06-22T08:21:41;99304.61;;;28.30;51.37
77235;BME280;66253;50.526;14.974;2023-06-22T08:24:09;99298.15;;;28.26;51.83
77235;BME280;66253;50.526;14.974;2023-06-22T08:26:38;99295.28;;;28.28;51.68
77235;BME280;66253;50.526;14.974;2023-06-22T08:29:07;99285.02;;;28.27;51.16
77235;BME280;66253;50.526;14.974;2023-06-22T08:31:36;99286.89;;;28.28;50.44
77235;BME280;66253;50.526;14.974;2023-06-22T08:34:04;99287.90;;;28.29;49.80
77235;BME280;66253;50.526;14.974;2023-06-22T08:36:33;99287.67;;;28.28;49.83
77235;BME280;66253;50.526;14.974;2023-06-22T08:39:02;99288.36;;;28.34;50.64
77235;BME280;66253;50.526;14.974;2023-06-22T08:41:31;99282.46;;;28.39;50.05
77235;BME280;66253;50.526;14.974;2023-06-22T08:43:59;99285.81;;;28.43;50.22
77235;BME280;66253;50.526;14.974;2023-06-22T08:46:28;99285.67;;;28.48;49.87
77235;BME280;66253;50.526;14.974;2023-06-22T08:48:56;99287.43;;;28.58;50.00
77235;BME280;66253;50.526;14.974;2023-06-22T08:51:25;99287.02;;;28.66;49.81
77235;BME280;66253;50.526;14.974;2023-06-22T08:54:01;99290.73;;;28.75;50.54
77235;BME280;66253;50.526;14.974;2023-06-22T08:56:29;99296.59;;;28.92;50.18
77235;BME280;66253;50.526;14.974;2023-06-22T08:58:58;99299.00;;;29.05;49.50
77235;BME280;66253;50.526;14.974;2023-06-22T09:01:27;99295.80;;;29.16;49.66
77235;BME280;66253;50.526;14.974;2023-06-22T09:03:55;99293.78;;;29.29;49.77
77235;BME280;66253;50.526;14.974;2023-06-22T09:06:24;99290.31;;;29.42;49.40
77235;BME280;66253;50.526;14.974;2023-06-22T09:08:53;99285.86;;;29.55;49.52
77235;BME280;66253;50.526;14.974;2023-06-22T09:11:22;99280.98;;;29.63;49.24
77235;BME280;66253;50.526;14.974;2023-06-22T09:13:50;99283.34;;;29.70;48.25
77235;BME280;66253;50.526;14.974;2023-06-22T09:16:21;99280.95;;;29.76;48.96
77235;BME280;66253;50.526;14.974;2023-06-22T09:18:50;99279.67;;;29.82;48.53
77235;BME280;66253;50.526;14.974;2023-06-22T09:21:19;99280.38;;;29.96;48.88
77235;BME280;66253;50.526;14.974;2023-06-22T09:23:48;99278.79;;;30.09;47.56
77235;BME280;66253;50.526;14.974;2023-06-22T09:26:17;99281.31;;;30.13;46.60
77235;BME280;66253;50.526;14.974;2023-06-22T09:28:44;99275.27;;;30.22;47.65
77235;BME280;66253;50.526;14.974;2023-06-22T09:31:12;99271.04;;;30.38;47.22
77235;BME280;66253;50.526;14.974;2023-06-22T09:33:40;99269.13;;;30.43;45.17
77235;BME280;66253;50.526;14.974;2023-06-22T09:36:08;99269.23;;;30.46;45.88
77235;BME280;66253;50.526;14.974;2023-06-22T09:38:37;99259.58;;;30.56;46.35
77235;BME280;66253;50.526;14.974;2023-06-22T09:41:07;99259.95;;;30.71;45.86
77235;BME280;66253;50.526;14.974;2023-06-22T09:43:36;99256.37;;;30.79;44.31
77235;BME280;66253;50.526;14.974;2023-06-22T09:46:02;99257.39;;;30.86;44.47
77235;BME280;66253;50.526;14.974;2023-06-22T09:48:31;99258.42;;;30.82;42.76
77235;BME280;66253;50.526;14.974;2023-06-22T09:51:00;99257.81;;;30.83;43.41
77235;BME280;66253;50.526;14.974;2023-06-22T09:53:28;99261.73;;;30.95;44.58
77235;BME280;66253;50.526;14.974;2023-06-22T09:55:56;99265.62;;;31.15;44.86
77235;BME280;66253;50.526;14.974;2023-06-22T09:58:25;99264.62;;;31.36;44.38
77235;BME280;66253;50.526;14.974;2023-06-22T10:00:54;99254.68;;;31.52;43.56
77235;BME280;66253;50.526;14.974;2023-06-22T10:03:22;99247.23;;;31.62;42.60
77235;BME280;66253;50.526;14.974;2023-06-22T10:05:51;99242.69;;;31.70;42.39
77235;BME280;66253;50.526;14.974;2023-06-22T10:08:19;99235.12;;;31.80;41.87
77235;BME280;66253;50.526;14.974;2023-06-22T10:10:48;99227.45;;;31.84;42.50
77235;BME280;66253;50.526;14.974;2023-06-22T10:13:16;99227.95;;;31.96;42.42
77235;BME280;66253;50.526;14.974;2023-06-22T10:15:45;99229.67;;;32.05;41.35
77235;BME280;66253;50.526;14.974;2023-06-22T10:18:14;99231.26;;;32.11;41.32
77235;BME280;66253;50.526;14.974;2023-06-22T10:20:42;99229.70;;;32.20;41.48
77235;BME280;66253;50.526;14.974;2023-06-22T10:23:10;99230.63;;;32.26;41.00
77235;BME280;66253;50.526;14.974;2023-06-22T10:25:43;99229.09;;;32.14;38.65
77235;BME280;66253;50.526;14.974;2023-06-22T10:28:13;99232.11;;;31.97;40.67
77235;BME280;66253;50.526;14.974;2023-06-22T10:30:42;99232.96;;;31.99;41.05
77235;BME280;66253;50.526;14.974;2023-06-22T10:33:11;99232.38;;;32.01;40.21
77235;BME280;66253;50.526;14.974;2023-06-22T10:35:40;99229.99;;;31.90;40.52
77235;BME280;66253;50.526;14.974;2023-06-22T10:38:07;99221.23;;;31.93;40.75
77235;BME280;66253;50.526;14.974;2023-06-22T10:40:36;99216.80;;;32.04;41.49
77235;BME280;66253;50.526;14.974;2023-06-22T10:43:04;99213.59;;;32.18;40.94
77235;BME280;66253;50.526;14.974;2023-06-22T10:45:35;99214.42;;;32.24;40.41
77235;BME280;66253;50.526;14.974;2023-06-22T10:48:07;99215.96;;;32.25;40.19
77235;BME280;66253;50.526;14.974;2023-06-22T10:50:36;99212.94;;;32.25;40.21
77235;BME280;66253;50.526;14.974;2023-06-22T10:53:04;99216.34;;;32.25;39.70
77235;BME280;66253;50.526;14.974;2023-06-22T10:55:33;99210.12;;;32.18;38.70
77235;BME280;66253;50.526;14.974;2023-06-22T10:58:01;99211.23;;;32.05;39.59
77235;BME280;66253;50.526;14.974;2023-06-22T11:00:30;99210.26;;;32.02;39.78
77235;BME280;66253;50.526;14.974;2023-06-22T11:02:58;99206.10;;;31.99;39.63
77235;BME280;66253;50.526;14.974;2023-06-22T11:05:27;99206.89;;;31.89;38.55
77235;BME280;66253;50.526;14.974;2023-06-22T11:07:55;99205.83;;;31.72;39.13
77235;BME280;66253;50.526;14.974;2023-06-22T11:10:24;99203.61;;;31.57;39.59
77235;BME280;66253;50.526;14.974;2023-06-22T11:12:53;99197.16;;;31.53;39.82
77235;BME280;66253;50.526;14.974;2023-06-22T11:15:21;99193.04;;;31.53;40.57
77235;BME280;66253;50.526;14.974;2023-06-22T11:17:49;99191.88;;;31.60;40.06
77235;BME280;66253;50.526;14.974;2023-06-22T11:20:18;99192.88;;;31.63;39.64
77235;BME280;66253;50.526;14.974;2023-06-22T11:22:46;99192.71;;;31.62;38.90
77235;BME280;66253;50.526;14.974;2023-06-22T11:25:15;99190.20;;;31.55;38.72
77235;BME280;66253;50.526;14.974;2023-06-22T11:27:43;99186.39;;;31.50;39.10
77235;BME280;66253;50.526;14.974;2023-06-22T11:30:12;99183.92;;;31.58;39.13
77235;BME280;66253;50.526;14.974;2023-06-22T11:32:41;99188.15;;;31.71;38.85
77235;BME280;66253;50.526;14.974;2023-06-22T11:35:10;99182.56;;;31.85;39.94
77235;BME280;66253;50.526;14.974;2023-06-22T11:37:36;99178.44;;;32.04;39.02
77235;BME280;66253;50.526;14.974;2023-06-22T11:40:07;99181.93;;;32.18;38.22
77235;BME280;66253;50.526;14.974;2023-06-22T11:42:35;99180.74;;;32.22;37.53
77235;BME280;66253;50.526;14.974;2023-06-22T11:45:07;99170.11;;;32.21;38.16
77235;BME280;66253;50.526;14.974;2023-06-22T11:47:35;99167.87;;;32.28;38.64
77235;BME280;66253;50.526;14.974;2023-06-22T11:50:05;99167.20;;;32.38;37.90
77235;BME280;66253;50.526;14.974;2023-06-22T11:52:34;99161.77;;;32.45;37.99
77235;BME280;66253;50.526;14.974;2023-06-22T11:55:03;99161.86;;;32.58;38.75
77235;BME280;66253;50.526;14.974;2023-06-22T11:57:32;99161.20;;;32.73;38.13
77235;BME280;66253;50.526;14.974;2023-06-22T12:00:00;99162.37;;;32.87;37.33
77235;BME280;66253;50.526;14.974;2023-06-22T12:02:29;99158.13;;;32.98;37.80
77235;BME280;66253;50.526;14.974;2023-06-22T12:04:57;99157.83;;;33.11;37.75
77235;BME280;66253;50.526;14.974;2023-06-22T12:07:26;99157.50;;;33.11;36.92
77235;BME280;66253;50.526;14.974;2023-06-22T12:09:55;99152.23;;;33.08;35.48
77235;BME280;66253;50.526;14.974;2023-06-22T12:12:23;99148.77;;;33.06;35.46
77235;BME280;66253;50.526;14.974;2023-06-22T12:14:52;99148.35;;;33.11;36.38
77235;BME280;66253;50.526;14.974;2023-06-22T12:17:20;99146.92;;;33.11;36.03
77235;BME280;66253;50.526;14.974;2023-06-22T12:19:49;99145.67;;;33.02;36.10
77235;BME280;66253;50.526;14.974;2023-06-22T12:22:17;99146.81;;;33.00;36.79
77235;BME280;66253;50.526;14.974;2023-06-22T12:24:45;99145.02;;;32.97;36.87
77235;BME280;66253;50.526;14.974;2023-06-22T12:27:14;99140.65;;;32.99;37.07
77235;BME280;66253;50.526;14.974;2023-06-22T12:29:43;99129.09;;;33.08;37.20
77235;BME280;66253;50.526;14.974;2023-06-22T12:32:11;99137.35;;;33.14;36.26
77235;BME280;66253;50.526;14.974;2023-06-22T12:34:41;99136.42;;;32.98;35.82
77235;BME280;66253;50.526;14.974;2023-06-22T12:37:10;99130.73;;;32.91;37.27
77235;BME280;66253;50.526;14.974;2023-06-22T12:39:39;99130.84;;;33.00;37.44
77235;BME280;66253;50.526;14.974;2023-06-22T12:42:08;99128.70;;;33.05;37.30
77235;BME280;66253;50.526;14.974;2023-06-22T12:44:37;99126.70;;;33.13;37.74
77235;BME280;66253;50.526;14.974;2023-06-22T12:47:04;99124.80;;;33.18;36.63
77235;BME280;66253;50.526;14.974;2023-06-22T12:49:33;99117.42;;;33.16;36.77
77235;BME280;66253;50.526;14.974;2023-06-22T12:52:02;99117.93;;;33.10;36.06
77235;BME280;66253;50.526;14.974;2023-06-22T12:54:31;99118.31;;;33.00;36.39
77235;BME280;66253;50.526;14.974;2023-06-22T12:56:59;99109.78;;;32.92;37.18
77235;BME280;66253;50.526;14.974;2023-06-22T12:59:28;99115.63;;;32.96;37.44